sensor_id;sensor_type;location;lat;lon;timestamp;P1;durP1;ratioP1;P2;durP2;ratioP2
27580;SDS011;63557;52.302;7.964;2022-10-16T00:04:28;13.57;;;7.67;;
27580;SDS011;63557;52.302;7.964;2022-10-16T00:09:28;10.93;;;7.83;;
27580;SDS011;63557;52.302;7.964;2022-10-16T00:14:29;22.13;;;9.33;;
27580;SDS011;63557;52.302;7.964;2022-10-16T00:19:29;17.57;;;9.43;;
27580;SDS011;63557;52.302;7.964;2022-10-16T00:24:30;16.70;;;9.43;;
27580;SDS011;63557;52.302;7.964;2022-10-16T00:29:30;16.77;;;10.07;;
27580;SDS011;63557;52.302;7.964;2022-10-16T00:34:31;17.65;;;10.43;;
27580;SDS011;63557;52.302;7.964;2022-10-16T00:39:31;22.87;;;10.90;;
27580;SDS011;63557;52.302;7.964;2022-10-16T00:44:42;25.20;;;12.07;;
27580;SDS011;63557;52.302;7.964;2022-10-16T00:49:43;21.38;;;13.63;;
27580;SDS011;63557;52.302;7.964;2022-10-16T00:54:43;29.05;;;14.43;;
27580;SDS011;63557;52.302;7.964;2022-10-16T00:59:45;26.55;;;14.95;;
27580;SDS011;63557;52.302;7.964;2022-10-16T01:04:50;20.50;;;13.27;;
27580;SDS011;63557;52.302;7.964;2022-10-16T01:10:07;29.87;;;17.90;;
27580;SDS011;63557;52.302;7.964;2022-10-16T01:20:30;33.20;;;20.40;;
27580;SDS011;63557;52.302;7.964;2022-10-16T01:30:34;30.70;;;19.45;;
27580;SDS011;63557;52.302;7.964;2022-10-16T01:35:37;31.23;;;18.75;;
27580;SDS011;63557;52.302;7.964;2022-10-16T01:40:39;37.28;;;20.55;;
27580;SDS011;63557;52.302;7.964;2022-10-16T01:45:41;33.05;;;20.65;;
27580;SDS011;63557;52.302;7.964;2022-10-16T01:50:44;31.85;;;18.42;;
27580;SDS011;63557;52.302;7.964;2022-10-16T01:55:46;33.38;;;20.95;;
27580;SDS011;63557;52.302;7.964;2022-10-16T02:00:47;41.03;;;23.50;;
27580;SDS011;63557;52.302;7.964;2022-10-16T02:10:51;36.42;;;21.95;;
27580;SDS011;63557;52.302;7.964;2022-10-16T02:15:51;47.58;;;25.70;;
27580;SDS011;63557;52.302;7.964;2022-10-16T02:21:02;44.00;;;25.27;;
27580;SDS011;63557;52.302;7.964;2022-10-16T02:26:05;49.85;;;25.23;;
27580;SDS011;63557;52.302;7.964;2022-10-16T02:31:08;44.47;;;24.15;;
27580;SDS011;63557;52.302;7.964;2022-10-16T02:36:10;41.40;;;23.70;;
27580;SDS011;63557;52.302;7.964;2022-10-16T02:41:10;40.58;;;23.95;;
27580;SDS011;63557;52.302;7.964;2022-10-16T02:46:11;40.83;;;24.63;;
27580;SDS011;63557;52.302;7.964;2022-10-16T02:51:11;37.97;;;23.55;;
27580;SDS011;63557;52.302;7.964;2022-10-16T02:56:11;33.57;;;22.33;;
27580;SDS011;63557;52.302;7.964;2022-10-16T03:01:12;42.83;;;24.67;;
27580;SDS011;63557;52.302;7.964;2022-10-16T03:06:14;32.92;;;20.95;;
27580;SDS011;63557;52.302;7.964;2022-10-16T03:11:14;30.47;;;18.83;;
27580;SDS011;63557;52.302;7.964;2022-10-16T03:16:15;31.40;;;18.53;;
27580;SDS011;63557;52.302;7.964;2022-10-16T03:21:15;28.90;;;18.97;;
27580;SDS011;63557;52.302;7.964;2022-10-16T03:26:15;28.52;;;17.55;;
27580;SDS011;63557;52.302;7.964;2022-10-16T03:31:16;28.97;;;17.30;;
27580;SDS011;63557;52.302;7.964;2022-10-16T03:36:16;29.10;;;17.00;;
27580;SDS011;63557;52.302;7.964;2022-10-16T03:41:16;22.43;;;16.63;;
27580;SDS011;63557;52.302;7.964;2022-10-16T03:46:17;30.70;;;16.97;;
27580;SDS011;63557;52.302;7.964;2022-10-16T03:51:17;25.43;;;16.80;;
27580;SDS011;63557;52.302;7.964;2022-10-16T03:56:17;23.13;;;15.70;;
27580;SDS011;63557;52.302;7.964;2022-10-16T04:01:18;22.23;;;14.93;;
27580;SDS011;63557;52.302;7.964;2022-10-16T04:06:18;19.40;;;12.97;;
27580;SDS011;63557;52.302;7.964;2022-10-16T04:11:19;21.43;;;13.80;;
27580;SDS011;63557;52.302;7.964;2022-10-16T04:16:19;20.30;;;12.45;;
27580;SDS011;63557;52.302;7.964;2022-10-16T04:21:19;18.83;;;11.53;;
27580;SDS011;63557;52.302;7.964;2022-10-16T04:26:20;20.50;;;12.70;;
27580;SDS011;63557;52.302;7.964;2022-10-16T04:31:20;16.80;;;11.83;;
27580;SDS011;63557;52.302;7.964;2022-10-16T04:36:20;18.70;;;10.60;;
27580;SDS011;63557;52.302;7.964;2022-10-16T04:41:21;15.10;;;11.10;;
27580;SDS011;63557;52.302;7.964;2022-10-16T04:46:22;14.57;;;10.48;;
27580;SDS011;63557;52.302;7.964;2022-10-16T04:51:22;14.90;;;9.97;;
27580;SDS011;63557;52.302;7.964;2022-10-16T04:56:22;11.98;;;9.63;;
27580;SDS011;63557;52.302;7.964;2022-10-16T05:01:23;14.65;;;9.77;;
27580;SDS011;63557;52.302;7.964;2022-10-16T05:06:23;11.30;;;8.67;;
27580;SDS011;63557;52.302;7.964;2022-10-16T05:11:24;13.73;;;8.53;;
27580;SDS011;63557;52.302;7.964;2022-10-16T05:16:24;12.30;;;8.20;;
27580;SDS011;63557;52.302;7.964;2022-10-16T05:21:24;12.93;;;8.50;;
27580;SDS011;63557;52.302;7.964;2022-10-16T05:26:25;9.38;;;7.57;;
27580;SDS011;63557;52.302;7.964;2022-10-16T05:31:25;11.73;;;7.70;;
27580;SDS011;63557;52.302;7.964;2022-10-16T05:36:25;9.47;;;7.03;;
27580;SDS011;63557;52.302;7.964;2022-10-16T05:41:26;12.48;;;7.93;;
27580;SDS011;63557;52.302;7.964;2022-10-16T05:46:26;11.38;;;7.43;;
27580;SDS011;63557;52.302;7.964;2022-10-16T05:51:27;12.37;;;8.00;;
27580;SDS011;63557;52.302;7.964;2022-10-16T05:56:27;9.82;;;7.90;;
27580;SDS011;63557;52.302;7.964;2022-10-16T06:01:28;10.60;;;6.85;;
27580;SDS011;63557;52.302;7.964;2022-10-16T06:06:28;7.90;;;6.97;;
27580;SDS011;63557;52.302;7.964;2022-10-16T06:11:31;8.38;;;6.53;;
27580;SDS011;63557;52.302;7.964;2022-10-16T06:16:32;9.65;;;6.72;;
27580;SDS011;63557;52.302;7.964;2022-10-16T06:21:32;15.57;;;7.13;;
27580;SDS011;63557;52.302;7.964;2022-10-16T06:26:33;6.77;;;6.07;;
27580;SDS011;63557;52.302;7.964;2022-10-16T06:31:33;12.93;;;6.63;;
27580;SDS011;63557;52.302;7.964;2022-10-16T06:36:34;9.27;;;5.68;;
27580;SDS011;63557;52.302;7.964;2022-10-16T06:41:34;15.82;;;5.43;;
27580;SDS011;63557;52.302;7.964;2022-10-16T06:46:48;6.70;;;5.40;;
27580;SDS011;63557;52.302;7.964;2022-10-16T06:51:48;8.80;;;6.43;;
27580;SDS011;63557;52.302;7.964;2022-10-16T06:56:49;8.50;;;5.37;;
27580;SDS011;63557;52.302;7.964;2022-10-16T07:01:51;6.20;;;5.22;;
27580;SDS011;63557;52.302;7.964;2022-10-16T07:06:51;5.87;;;5.10;;
27580;SDS011;63557;52.302;7.964;2022-10-16T07:11:51;7.57;;;4.60;;
27580;SDS011;63557;52.302;7.964;2022-10-16T07:16:52;8.87;;;4.80;;
27580;SDS011;63557;52.302;7.964;2022-10-16T07:21:52;8.55;;;5.35;;
27580;SDS011;63557;52.302;7.964;2022-10-16T07:26:52;6.93;;;5.27;;
27580;SDS011;63557;52.302;7.964;2022-10-16T07:31:53;7.55;;;4.90;;
27580;SDS011;63557;52.302;7.964;2022-10-16T07:36:53;6.10;;;4.25;;
27580;SDS011;63557;52.302;7.964;2022-10-16T07:41:54;7.78;;;4.05;;
27580;SDS011;63557;52.302;7.964;2022-10-16T07:46:54;6.37;;;4.10;;
27580;SDS011;63557;52.302;7.964;2022-10-16T07:51:54;6.13;;;3.87;;
27580;SDS011;63557;52.302;7.964;2022-10-16T07:56:55;6.47;;;4.87;;
27580;SDS011;63557;52.302;7.964;2022-10-16T08:01:55;5.60;;;3.30;;
27580;SDS011;63557;52.302;7.964;2022-10-16T08:06:55;7.47;;;4.10;;
27580;SDS011;63557;52.302;7.964;2022-10-16T08:11:56;5.40;;;3.47;;
27580;SDS011;63557;52.302;7.964;2022-10-16T08:16:56;6.17;;;3.60;;
27580;SDS011;63557;52.302;7.964;2022-10-16T08:21:56;7.50;;;3.63;;
27580;SDS011;63557;52.302;7.964;2022-10-16T08:26:57;4.40;;;3.43;;
27580;SDS011;63557;52.302;7.964;2022-10-16T08:31:57;8.55;;;4.32;;
27580;SDS011;63557;52.302;7.964;2022-10-16T08:36:57;5.10;;;3.30;;
27580;SDS011;63557;52.302;7.964;2022-10-16T08:52:04;8.20;;;3.42;;
27580;SDS011;63557;52.302;7.964;2022-10-16T08:57:30;9.83;;;3.17;;
27580;SDS011;63557;52.302;7.964;2022-10-16T09:02:38;7.20;;;3.20;;
27580;SDS011;63557;52.302;7.964;2022-10-16T09:07:46;7.75;;;3.30;;
27580;SDS011;63557;52.302;7.964;2022-10-16T09:12:54;7.38;;;2.60;;
27580;SDS011;63557;52.302;7.964;2022-10-16T09:28:07;5.00;;;2.40;;
27580;SDS011;63557;52.302;7.964;2022-10-16T09:33:09;7.47;;;2.30;;
27580;SDS011;63557;52.302;7.964;2022-10-16T09:38:20;5.38;;;2.50;;
27580;SDS011;63557;52.302;7.964;2022-10-16T09:48:21;5.70;;;2.07;;
27580;SDS011;63557;52.302;7.964;2022-10-16T09:53:22;5.88;;;2.45;;
27580;SDS011;63557;52.302;7.964;2022-10-16T09:58:22;5.45;;;1.95;;
27580;SDS011;63557;52.302;7.964;2022-10-16T10:03:35;6.50;;;1.80;;
27580;SDS011;63557;52.302;7.964;2022-10-16T10:08:36;11.57;;;2.28;;
27580;SDS011;63557;52.302;7.964;2022-10-16T10:13:36;6.07;;;2.30;;
27580;SDS011;63557;52.302;7.964;2022-10-16T10:18:36;5.07;;;1.93;;
27580;SDS011;63557;52.302;7.964;2022-10-16T10:23:36;6.03;;;2.07;;
27580;SDS011;63557;52.302;7.964;2022-10-16T10:28:52;4.78;;;2.00;;
27580;SDS011;63557;52.302;7.964;2022-10-16T10:33:57;4.13;;;2.20;;
27580;SDS011;63557;52.302;7.964;2022-10-16T10:39:00;5.57;;;1.90;;
27580;SDS011;63557;52.302;7.964;2022-10-16T10:44:06;3.75;;;1.40;;
27580;SDS011;63557;52.302;7.964;2022-10-16T11:10:22;4.00;;;1.95;;
27580;SDS011;63557;52.302;7.964;2022-10-16T11:15:04;4.97;;;1.67;;
27580;SDS011;63557;52.302;7.964;2022-10-16T11:20:12;4.93;;;1.63;;
27580;SDS011;63557;52.302;7.964;2022-10-16T11:30:16;4.40;;;2.00;;
27580;SDS011;63557;52.302;7.964;2022-10-16T11:35:24;8.20;;;2.83;;
27580;SDS011;63557;52.302;7.964;2022-10-16T11:40:28;6.13;;;2.67;;
27580;SDS011;63557;52.302;7.964;2022-10-16T11:45:39;5.82;;;3.20;;
27580;SDS011;63557;52.302;7.964;2022-10-16T11:50:44;8.57;;;3.22;;
27580;SDS011;63557;52.302;7.964;2022-10-16T11:55:45;8.85;;;3.30;;
27580;SDS011;63557;52.302;7.964;2022-10-16T12:00:47;7.33;;;3.77;;
27580;SDS011;63557;52.302;7.964;2022-10-16T12:11:05;10.40;;;3.70;;
27580;SDS011;63557;52.302;7.964;2022-10-16T12:21:13;6.68;;;3.75;;
27580;SDS011;63557;52.302;7.964;2022-10-16T12:26:31;10.38;;;3.30;;
27580;SDS011;63557;52.302;7.964;2022-10-16T12:31:42;8.07;;;3.53;;
27580;SDS011;63557;52.302;7.964;2022-10-16T12:36:43;8.82;;;3.50;;
27580;SDS011;63557;52.302;7.964;2022-10-16T12:41:43;7.80;;;2.80;;
27580;SDS011;63557;52.302;7.964;2022-10-16T12:46:44;11.37;;;3.90;;
27580;SDS011;63557;52.302;7.964;2022-10-16T12:51:44;8.87;;;3.60;;
27580;SDS011;63557;52.302;7.964;2022-10-16T13:06:51;7.50;;;2.33;;
27580;SDS011;63557;52.302;7.964;2022-10-16T13:22:10;11.00;;;2.08;;
27580;SDS011;63557;52.302;7.964;2022-10-16T13:32:46;10.32;;;2.63;;
27580;SDS011;63557;52.302;7.964;2022-10-16T13:37:48;9.93;;;2.45;;
27580;SDS011;63557;52.302;7.964;2022-10-16T13:42:49;11.18;;;2.35;;
27580;SDS011;63557;52.302;7.964;2022-10-16T13:48:01;8.68;;;2.28;;
27580;SDS011;63557;52.302;7.964;2022-10-16T13:53:11;7.90;;;1.85;;
27580;SDS011;63557;52.302;7.964;2022-10-16T13:58:14;11.45;;;2.30;;
27580;SDS011;63557;52.302;7.964;2022-10-16T14:03:14;5.78;;;2.03;;
27580;SDS011;63557;52.302;7.964;2022-10-16T14:08:15;7.20;;;2.05;;
27580;SDS011;63557;52.302;7.964;2022-10-16T14:13:20;5.88;;;1.73;;
27580;SDS011;63557;52.302;7.964;2022-10-16T14:18:22;8.93;;;2.00;;
27580;SDS011;63557;52.302;7.964;2022-10-16T14:23:28;7.22;;;2.10;;
27580;SDS011;63557;52.302;7.964;2022-10-16T14:28:29;7.78;;;2.30;;
27580;SDS011;63557;52.302;7.964;2022-10-16T14:38:30;8.57;;;2.42;;
27580;SDS011;63557;52.302;7.964;2022-10-16T14:43:32;6.68;;;2.17;;
27580;SDS011;63557;52.302;7.964;2022-10-16T14:48:33;6.30;;;2.10;;
27580;SDS011;63557;52.302;7.964;2022-10-16T14:53:34;11.17;;;2.07;;
27580;SDS011;63557;52.302;7.964;2022-10-16T14:58:34;6.00;;;1.80;;
27580;SDS011;63557;52.302;7.964;2022-10-16T15:03:35;11.30;;;1.80;;
27580;SDS011;63557;52.302;7.964;2022-10-16T15:08:35;8.43;;;1.83;;
27580;SDS011;63557;52.302;7.964;2022-10-16T15:13:35;5.70;;;1.80;;
27580;SDS011;63557;52.302;7.964;2022-10-16T15:18:36;8.87;;;2.60;;
27580;SDS011;63557;52.302;7.964;2022-10-16T15:23:36;9.13;;;2.33;;
27580;SDS011;63557;52.302;7.964;2022-10-16T15:28:37;6.90;;;1.60;;
27580;SDS011;63557;52.302;7.964;2022-10-16T15:33:37;11.20;;;2.37;;
27580;SDS011;63557;52.302;7.964;2022-10-16T15:38:38;12.37;;;2.43;;
27580;SDS011;63557;52.302;7.964;2022-10-16T15:43:38;10.48;;;2.30;;
27580;SDS011;63557;52.302;7.964;2022-10-16T15:48:38;10.57;;;1.92;;
27580;SDS011;63557;52.302;7.964;2022-10-16T15:53:39;13.07;;;2.40;;
27580;SDS011;63557;52.302;7.964;2022-10-16T15:58:39;8.23;;;2.40;;
27580;SDS011;63557;52.302;7.964;2022-10-16T16:03:39;9.20;;;2.43;;
27580;SDS011;63557;52.302;7.964;2022-10-16T16:08:40;10.07;;;2.28;;
27580;SDS011;63557;52.302;7.964;2022-10-16T16:13:41;11.18;;;2.10;;
27580;SDS011;63557;52.302;7.964;2022-10-16T16:18:42;9.05;;;3.05;;
27580;SDS011;63557;52.302;7.964;2022-10-16T16:23:42;10.70;;;2.30;;
27580;SDS011;63557;52.302;7.964;2022-10-16T16:28:43;12.80;;;2.73;;
27580;SDS011;63557;52.302;7.964;2022-10-16T16:33:43;16.87;;;2.83;;
27580;SDS011;63557;52.302;7.964;2022-10-16T16:38:44;22.57;;;3.30;;
27580;SDS011;63557;52.302;7.964;2022-10-16T16:43:45;9.35;;;3.28;;
27580;SDS011;63557;52.302;7.964;2022-10-16T16:48:46;15.57;;;4.82;;
27580;SDS011;63557;52.302;7.964;2022-10-16T16:53:49;13.95;;;4.95;;
27580;SDS011;63557;52.302;7.964;2022-10-16T16:58:51;11.82;;;3.60;;
27580;SDS011;63557;52.302;7.964;2022-10-16T17:03:52;11.05;;;4.20;;
27580;SDS011;63557;52.302;7.964;2022-10-16T17:08:53;9.20;;;3.60;;
27580;SDS011;63557;52.302;7.964;2022-10-16T17:13:54;10.88;;;4.38;;
27580;SDS011;63557;52.302;7.964;2022-10-16T17:18:54;13.82;;;4.40;;
27580;SDS011;63557;52.302;7.964;2022-10-16T17:23:55;13.40;;;4.90;;
27580;SDS011;63557;52.302;7.964;2022-10-16T17:28:56;13.30;;;4.90;;
27580;SDS011;63557;52.302;7.964;2022-10-16T17:33:58;10.60;;;4.07;;
27580;SDS011;63557;52.302;7.964;2022-10-16T17:38:59;8.80;;;4.03;;
27580;SDS011;63557;52.302;7.964;2022-10-16T17:44:00;11.25;;;4.70;;
27580;SDS011;63557;52.302;7.964;2022-10-16T17:49:01;17.40;;;4.35;;
27580;SDS011;63557;52.302;7.964;2022-10-16T17:54:01;9.97;;;4.80;;
27580;SDS011;63557;52.302;7.964;2022-10-16T17:59:02;17.63;;;4.95;;
27580;SDS011;63557;52.302;7.964;2022-10-16T18:04:13;19.00;;;4.35;;
27580;SDS011;63557;52.302;7.964;2022-10-16T18:09:14;12.50;;;4.35;;
27580;SDS011;63557;52.302;7.964;2022-10-16T18:14:17;10.57;;;5.88;;
27580;SDS011;63557;52.302;7.964;2022-10-16T18:19:18;13.10;;;5.32;;
27580;SDS011;63557;52.302;7.964;2022-10-16T18:24:18;21.85;;;7.68;;
27580;SDS011;63557;52.302;7.964;2022-10-16T18:29:18;14.55;;;5.82;;
27580;SDS011;63557;52.302;7.964;2022-10-16T18:34:19;11.83;;;6.03;;
27580;SDS011;63557;52.302;7.964;2022-10-16T18:39:19;16.55;;;6.72;;
27580;SDS011;63557;52.302;7.964;2022-10-16T18:44:22;16.25;;;7.90;;
27580;SDS011;63557;52.302;7.964;2022-10-16T18:49:23;12.67;;;7.47;;
27580;SDS011;63557;52.302;7.964;2022-10-16T18:54:24;20.10;;;8.07;;
27580;SDS011;63557;52.302;7.964;2022-10-16T18:59:24;13.23;;;8.82;;
27580;SDS011;63557;52.302;7.964;2022-10-16T19:04:25;21.45;;;8.90;;
27580;SDS011;63557;52.302;7.964;2022-10-16T19:09:25;15.02;;;7.50;;
27580;SDS011;63557;52.302;7.964;2022-10-16T19:14:26;16.83;;;8.97;;
27580;SDS011;63557;52.302;7.964;2022-10-16T19:19:28;15.80;;;8.75;;
27580;SDS011;63557;52.302;7.964;2022-10-16T19:24:28;19.83;;;9.70;;
27580;SDS011;63557;52.302;7.964;2022-10-16T19:29:29;17.13;;;10.10;;
27580;SDS011;63557;52.302;7.964;2022-10-16T19:34:30;20.15;;;10.55;;
27580;SDS011;63557;52.302;7.964;2022-10-16T19:39:30;20.40;;;10.50;;
27580;SDS011;63557;52.302;7.964;2022-10-16T19:44:30;15.93;;;9.20;;
27580;SDS011;63557;52.302;7.964;2022-10-16T19:49:31;23.80;;;9.15;;
27580;SDS011;63557;52.302;7.964;2022-10-16T19:54:32;18.17;;;9.98;;
27580;SDS011;63557;52.302;7.964;2022-10-16T19:59:34;16.13;;;9.25;;
27580;SDS011;63557;52.302;7.964;2022-10-16T20:04:35;19.27;;;9.70;;
27580;SDS011;63557;52.302;7.964;2022-10-16T20:09:35;14.57;;;9.30;;
27580;SDS011;63557;52.302;7.964;2022-10-16T20:14:35;15.50;;;10.17;;
27580;SDS011;63557;52.302;7.964;2022-10-16T20:19:36;16.37;;;10.03;;
27580;SDS011;63557;52.302;7.964;2022-10-16T20:24:38;20.65;;;10.18;;
27580;SDS011;63557;52.302;7.964;2022-10-16T20:29:39;18.10;;;9.10;;
27580;SDS011;63557;52.302;7.964;2022-10-16T20:34:39;17.53;;;10.40;;
27580;SDS011;63557;52.302;7.964;2022-10-16T20:39:41;19.60;;;10.25;;
27580;SDS011;63557;52.302;7.964;2022-10-16T20:44:42;23.57;;;11.27;;
27580;SDS011;63557;52.302;7.964;2022-10-16T20:49:42;18.97;;;11.93;;
27580;SDS011;63557;52.302;7.964;2022-10-16T20:54:43;21.60;;;11.70;;
27580;SDS011;63557;52.302;7.964;2022-10-16T20:59:43;22.33;;;13.20;;
27580;SDS011;63557;52.302;7.964;2022-10-16T21:04:45;30.50;;;24.23;;
27580;SDS011;63557;52.302;7.964;2022-10-16T21:09:46;21.40;;;16.02;;
27580;SDS011;63557;52.302;7.964;2022-10-16T21:14:46;20.97;;;13.70;;
27580;SDS011;63557;52.302;7.964;2022-10-16T21:19:46;24.77;;;14.43;;
27580;SDS011;63557;52.302;7.964;2022-10-16T21:24:47;26.00;;;14.67;;
27580;SDS011;63557;52.302;7.964;2022-10-16T21:29:47;23.50;;;15.67;;
27580;SDS011;63557;52.302;7.964;2022-10-16T21:34:47;17.80;;;15.63;;
27580;SDS011;63557;52.302;7.964;2022-10-16T21:39:48;18.67;;;14.98;;
27580;SDS011;63557;52.302;7.964;2022-10-16T21:44:48;24.23;;;16.02;;
27580;SDS011;63557;52.302;7.964;2022-10-16T21:49:49;21.93;;;17.10;;
27580;SDS011;63557;52.302;7.964;2022-10-16T21:54:49;20.73;;;16.05;;
27580;SDS011;63557;52.302;7.964;2022-10-16T21:59:49;26.47;;;15.87;;
27580;SDS011;63557;52.302;7.964;2022-10-16T22:04:50;20.88;;;15.40;;
27580;SDS011;63557;52.302;7.964;2022-10-16T22:09:50;20.80;;;14.37;;
27580;SDS011;63557;52.302;7.964;2022-10-16T22:14:50;23.57;;;17.30;;
27580;SDS011;63557;52.302;7.964;2022-10-16T22:19:51;24.35;;;17.60;;
27580;SDS011;63557;52.302;7.964;2022-10-16T22:24:51;19.07;;;16.83;;
27580;SDS011;63557;52.302;7.964;2022-10-16T22:29:52;24.23;;;16.33;;
27580;SDS011;63557;52.302;7.964;2022-10-16T22:34:52;22.57;;;19.87;;
27580;SDS011;63557;52.302;7.964;2022-10-16T22:39:52;24.77;;;19.80;;
27580;SDS011;63557;52.302;7.964;2022-10-16T22:44:53;29.23;;;20.63;;
27580;SDS011;63557;52.302;7.964;2022-10-16T22:49:53;25.47;;;20.53;;
27580;SDS011;63557;52.302;7.964;2022-10-16T22:54:53;25.00;;;19.58;;
27580;SDS011;63557;52.302;7.964;2022-10-16T22:59:54;26.03;;;20.47;;
27580;SDS011;63557;52.302;7.964;2022-10-16T23:04:54;25.57;;;19.20;;
27580;SDS011;63557;52.302;7.964;2022-10-16T23:09:54;29.60;;;20.63;;
27580;SDS011;63557;52.302;7.964;2022-10-16T23:14:55;28.53;;;21.67;;
27580;SDS011;63557;52.302;7.964;2022-10-16T23:19:55;31.97;;;21.97;;
27580;SDS011;63557;52.302;7.964;2022-10-16T23:24:55;29.20;;;21.07;;
27580;SDS011;63557;52.302;7.964;2022-10-16T23:29:56;27.33;;;20.70;;
27580;SDS011;63557;52.302;7.964;2022-10-16T23:34:56;36.70;;;22.93;;
27580;SDS011;63557;52.302;7.964;2022-10-16T23:39:56;25.87;;;21.63;;
27580;SDS011;63557;52.302;7.964;2022-10-16T23:44:57;26.03;;;21.97;;
27580;SDS011;63557;52.302;7.964;2022-10-16T23:49:57;25.73;;;22.17;;
27580;SDS011;63557;52.302;7.964;2022-10-16T23:54:57;26.45;;;22.38;;
27580;SDS011;63557;52.302;7.964;2022-10-16T23:59:58;30.80;;;23.27;;
